sensor_id;sensor_type;location;lat;lon;timestamp;P1;durP1;ratioP1;P2;durP2;ratioP2
2940;SDS011;1480;51.456;6.670;2023-06-19T00:00:04;3.30;;;2.70;;
2940;SDS011;1480;51.456;6.670;2023-06-19T00:02:40;3.87;;;2.40;;
2940;SDS011;1480;51.456;6.670;2023-06-19T00:05:07;4.07;;;2.80;;
2940;SDS011;1480;51.456;6.670;2023-06-19T00:07:34;4.30;;;2.73;;
2940;SDS011;1480;51.456;6.670;2023-06-19T00:10:01;5.10;;;3.03;;
2940;SDS011;1480;51.456;6.670;2023-06-19T00:12:27;3.63;;;2.77;;
2940;SDS011;1480;51.456;6.670;2023-06-19T00:14:55;2.90;;;2.20;;
2940;SDS011;1480;51.456;6.670;2023-06-19T00:17:22;3.47;;;2.50;;
2940;SDS011;1480;51.456;6.670;2023-06-19T00:19:51;3.90;;;2.20;;
2940;SDS011;1480;51.456;6.670;2023-06-19T00:22:18;4.10;;;3.07;;
2940;SDS011;1480;51.456;6.670;2023-06-19T00:24:45;3.23;;;2.63;;
2940;SDS011;1480;51.456;6.670;2023-06-19T00:27:11;4.50;;;2.50;;
2940;SDS011;1480;51.456;6.670;2023-06-19T00:29:39;3.10;;;2.27;;
2940;SDS011;1480;51.456;6.670;2023-06-19T00:32:07;4.13;;;2.10;;
2940;SDS011;1480;51.456;6.670;2023-06-19T00:34:34;3.20;;;2.10;;
2940;SDS011;1480;51.456;6.670;2023-06-19T00:37:02;3.93;;;3.17;;
2940;SDS011;1480;51.456;6.670;2023-06-19T00:39:29;5.93;;;2.50;;
2940;SDS011;1480;51.456;6.670;2023-06-19T00:41:56;4.20;;;3.20;;
2940;SDS011;1480;51.456;6.670;2023-06-19T00:44:22;3.10;;;2.10;;
2940;SDS011;1480;51.456;6.670;2023-06-19T00:46:50;3.50;;;2.63;;
2940;SDS011;1480;51.456;6.670;2023-06-19T00:49:19;3.30;;;2.40;;
2940;SDS011;1480;51.456;6.670;2023-06-19T00:51:45;4.23;;;2.50;;
2940;SDS011;1480;51.456;6.670;2023-06-19T00:54:13;3.57;;;2.43;;
2940;SDS011;1480;51.456;6.670;2023-06-19T00:56:40;4.37;;;2.90;;
2940;SDS011;1480;51.456;6.670;2023-06-19T00:59:10;4.03;;;3.23;;
2940;SDS011;1480;51.456;6.670;2023-06-19T01:01:39;3.20;;;2.17;;
2940;SDS011;1480;51.456;6.670;2023-06-19T01:04:06;6.00;;;2.50;;
2940;SDS011;1480;51.456;6.670;2023-06-19T01:06:36;3.83;;;2.43;;
2940;SDS011;1480;51.456;6.670;2023-06-19T01:09:07;4.93;;;2.77;;
2940;SDS011;1480;51.456;6.670;2023-06-19T01:11:37;4.83;;;2.20;;
2940;SDS011;1480;51.456;6.670;2023-06-19T01:14:08;3.73;;;2.50;;
2940;SDS011;1480;51.456;6.670;2023-06-19T01:16:36;3.57;;;2.23;;
2940;SDS011;1480;51.456;6.670;2023-06-19T01:19:03;3.30;;;2.53;;
2940;SDS011;1480;51.456;6.670;2023-06-19T01:21:32;5.60;;;3.00;;
2940;SDS011;1480;51.456;6.670;2023-06-19T01:24:00;5.57;;;2.90;;
2940;SDS011;1480;51.456;6.670;2023-06-19T01:26:26;3.17;;;2.70;;
2940;SDS011;1480;51.456;6.670;2023-06-19T01:28:53;3.20;;;2.70;;
2940;SDS011;1480;51.456;6.670;2023-06-19T01:31:22;6.27;;;2.83;;
2940;SDS011;1480;51.456;6.670;2023-06-19T01:33:52;4.60;;;3.00;;
2940;SDS011;1480;51.456;6.670;2023-06-19T01:36:20;3.30;;;2.50;;
2940;SDS011;1480;51.456;6.670;2023-06-19T01:38:48;3.63;;;2.47;;
2940;SDS011;1480;51.456;6.670;2023-06-19T01:41:16;4.00;;;3.07;;
2940;SDS011;1480;51.456;6.670;2023-06-19T01:43:43;5.10;;;2.33;;
2940;SDS011;1480;51.456;6.670;2023-06-19T01:46:11;5.60;;;3.50;;
2940;SDS011;1480;51.456;6.670;2023-06-19T01:48:38;3.87;;;2.40;;
2940;SDS011;1480;51.456;6.670;2023-06-19T01:51:06;3.80;;;2.57;;
2940;SDS011;1480;51.456;6.670;2023-06-19T01:53:33;6.00;;;2.30;;
2940;SDS011;1480;51.456;6.670;2023-06-19T01:55:59;3.20;;;2.63;;
2940;SDS011;1480;51.456;6.670;2023-06-19T01:58:30;4.83;;;3.20;;
2940;SDS011;1480;51.456;6.670;2023-06-19T02:00:56;3.20;;;2.17;;
2940;SDS011;1480;51.456;6.670;2023-06-19T02:03:23;3.07;;;2.33;;
2940;SDS011;1480;51.456;6.670;2023-06-19T02:05:51;4.33;;;3.03;;
2940;SDS011;1480;51.456;6.670;2023-06-19T02:08:19;6.40;;;2.50;;
2940;SDS011;1480;51.456;6.670;2023-06-19T02:10:45;5.27;;;2.67;;
2940;SDS011;1480;51.456;6.670;2023-06-19T02:13:12;4.50;;;3.10;;
2940;SDS011;1480;51.456;6.670;2023-06-19T02:15:40;3.27;;;2.50;;
2940;SDS011;1480;51.456;6.670;2023-06-19T02:18:08;3.80;;;2.90;;
2940;SDS011;1480;51.456;6.670;2023-06-19T02:20:34;4.37;;;2.50;;
2940;SDS011;1480;51.456;6.670;2023-06-19T02:23:01;3.17;;;2.60;;
2940;SDS011;1480;51.456;6.670;2023-06-19T02:25:29;4.83;;;2.90;;
2940;SDS011;1480;51.456;6.670;2023-06-19T02:27:55;5.57;;;3.10;;
2940;SDS011;1480;51.456;6.670;2023-06-19T02:30:22;3.13;;;2.60;;
2940;SDS011;1480;51.456;6.670;2023-06-19T02:32:50;4.13;;;2.13;;
2940;SDS011;1480;51.456;6.670;2023-06-19T02:35:18;3.70;;;2.73;;
2940;SDS011;1480;51.456;6.670;2023-06-19T02:37:45;3.70;;;2.17;;
2940;SDS011;1480;51.456;6.670;2023-06-19T02:40:12;4.97;;;2.63;;
2940;SDS011;1480;51.456;6.670;2023-06-19T02:42:39;4.83;;;2.40;;
2940;SDS011;1480;51.456;6.670;2023-06-19T02:45:07;3.60;;;2.90;;
2940;SDS011;1480;51.456;6.670;2023-06-19T02:47:34;4.53;;;2.87;;
2940;SDS011;1480;51.456;6.670;2023-06-19T02:50:02;4.43;;;2.37;;
2940;SDS011;1480;51.456;6.670;2023-06-19T02:52:30;3.40;;;2.50;;
2940;SDS011;1480;51.456;6.670;2023-06-19T02:54:58;3.00;;;2.20;;
2940;SDS011;1480;51.456;6.670;2023-06-19T02:57:25;6.90;;;2.93;;
2940;SDS011;1480;51.456;6.670;2023-06-19T02:59:51;3.07;;;2.43;;
2940;SDS011;1480;51.456;6.670;2023-06-19T03:02:18;3.63;;;2.00;;
2940;SDS011;1480;51.456;6.670;2023-06-19T03:04:45;2.40;;;2.17;;
2940;SDS011;1480;51.456;6.670;2023-06-19T03:07:13;2.57;;;1.70;;
2940;SDS011;1480;51.456;6.670;2023-06-19T03:09:40;4.63;;;2.13;;
2940;SDS011;1480;51.456;6.670;2023-06-19T03:12:07;2.90;;;1.90;;
2940;SDS011;1480;51.456;6.670;2023-06-19T03:14:36;2.53;;;1.43;;
2940;SDS011;1480;51.456;6.670;2023-06-19T03:17:03;3.00;;;2.03;;
2940;SDS011;1480;51.456;6.670;2023-06-19T03:19:30;2.90;;;1.50;;
2940;SDS011;1480;51.456;6.670;2023-06-19T03:21:58;2.17;;;1.30;;
2940;SDS011;1480;51.456;6.670;2023-06-19T03:24:26;2.83;;;1.60;;
2940;SDS011;1480;51.456;6.670;2023-06-19T03:26:56;2.23;;;1.20;;
2940;SDS011;1480;51.456;6.670;2023-06-19T03:29:23;4.60;;;1.97;;
2940;SDS011;1480;51.456;6.670;2023-06-19T03:31:58;2.33;;;1.73;;
2940;SDS011;1480;51.456;6.670;2023-06-19T03:34:30;3.13;;;1.97;;
2940;SDS011;1480;51.456;6.670;2023-06-19T03:36:59;3.67;;;2.00;;
2940;SDS011;1480;51.456;6.670;2023-06-19T03:39:27;2.67;;;1.43;;
2940;SDS011;1480;51.456;6.670;2023-06-19T03:42:00;2.70;;;1.30;;
2940;SDS011;1480;51.456;6.670;2023-06-19T03:44:27;3.00;;;2.27;;
2940;SDS011;1480;51.456;6.670;2023-06-19T03:46:54;3.20;;;1.40;;
2940;SDS011;1480;51.456;6.670;2023-06-19T03:49:21;2.93;;;1.70;;
2940;SDS011;1480;51.456;6.670;2023-06-19T03:51:49;3.73;;;1.50;;
2940;SDS011;1480;51.456;6.670;2023-06-19T03:54:16;2.43;;;1.60;;
2940;SDS011;1480;51.456;6.670;2023-06-19T03:56:44;3.37;;;1.67;;
2940;SDS011;1480;51.456;6.670;2023-06-19T03:59:10;2.67;;;1.50;;
2940;SDS011;1480;51.456;6.670;2023-06-19T04:01:37;3.27;;;1.73;;
2940;SDS011;1480;51.456;6.670;2023-06-19T04:04:04;2.10;;;1.33;;
2940;SDS011;1480;51.456;6.670;2023-06-19T04:06:30;2.50;;;1.30;;
2940;SDS011;1480;51.456;6.670;2023-06-19T04:08:57;3.93;;;1.73;;
2940;SDS011;1480;51.456;6.670;2023-06-19T04:11:24;1.93;;;1.27;;
2940;SDS011;1480;51.456;6.670;2023-06-19T04:13:52;3.27;;;1.57;;
2940;SDS011;1480;51.456;6.670;2023-06-19T04:16:18;4.70;;;2.00;;
2940;SDS011;1480;51.456;6.670;2023-06-19T04:18:45;3.03;;;1.50;;
2940;SDS011;1480;51.456;6.670;2023-06-19T04:21:12;2.23;;;1.33;;
2940;SDS011;1480;51.456;6.670;2023-06-19T04:23:40;2.40;;;1.33;;
2940;SDS011;1480;51.456;6.670;2023-06-19T04:26:07;3.60;;;1.23;;
2940;SDS011;1480;51.456;6.670;2023-06-19T04:28:34;3.53;;;1.77;;
2940;SDS011;1480;51.456;6.670;2023-06-19T04:31:02;2.73;;;1.40;;
2940;SDS011;1480;51.456;6.670;2023-06-19T04:33:28;2.40;;;1.23;;
2940;SDS011;1480;51.456;6.670;2023-06-19T04:35:55;3.57;;;1.70;;
2940;SDS011;1480;51.456;6.670;2023-06-19T04:38:22;2.30;;;1.30;;
2940;SDS011;1480;51.456;6.670;2023-06-19T04:40:49;4.07;;;1.63;;
2940;SDS011;1480;51.456;6.670;2023-06-19T04:43:16;2.63;;;1.10;;
2940;SDS011;1480;51.456;6.670;2023-06-19T04:45:43;3.20;;;1.77;;
2940;SDS011;1480;51.456;6.670;2023-06-19T04:48:11;2.63;;;1.67;;
2940;SDS011;1480;51.456;6.670;2023-06-19T04:50:38;5.07;;;1.63;;
2940;SDS011;1480;51.456;6.670;2023-06-19T04:53:04;2.30;;;1.20;;
2940;SDS011;1480;51.456;6.670;2023-06-19T04:55:31;1.87;;;1.13;;
2940;SDS011;1480;51.456;6.670;2023-06-19T04:57:58;2.07;;;1.30;;
2940;SDS011;1480;51.456;6.670;2023-06-19T05:00:25;2.47;;;1.77;;
2940;SDS011;1480;51.456;6.670;2023-06-19T05:02:51;2.67;;;1.67;;
2940;SDS011;1480;51.456;6.670;2023-06-19T05:05:20;2.47;;;1.60;;
2940;SDS011;1480;51.456;6.670;2023-06-19T05:07:46;3.30;;;1.67;;
2940;SDS011;1480;51.456;6.670;2023-06-19T05:10:13;3.53;;;1.30;;
2940;SDS011;1480;51.456;6.670;2023-06-19T05:12:40;2.33;;;1.33;;
2940;SDS011;1480;51.456;6.670;2023-06-19T05:15:07;2.73;;;1.43;;
2940;SDS011;1480;51.456;6.670;2023-06-19T05:17:34;2.60;;;1.43;;
2940;SDS011;1480;51.456;6.670;2023-06-19T05:20:04;2.50;;;1.60;;
2940;SDS011;1480;51.456;6.670;2023-06-19T05:22:34;2.80;;;1.63;;
2940;SDS011;1480;51.456;6.670;2023-06-19T05:25:01;1.57;;;1.03;;
2940;SDS011;1480;51.456;6.670;2023-06-19T05:27:28;3.50;;;1.90;;
2940;SDS011;1480;51.456;6.670;2023-06-19T05:29:55;2.37;;;1.27;;
2940;SDS011;1480;51.456;6.670;2023-06-19T05:32:21;3.10;;;1.67;;
2940;SDS011;1480;51.456;6.670;2023-06-19T05:34:48;2.17;;;1.30;;
2940;SDS011;1480;51.456;6.670;2023-06-19T05:37:15;2.17;;;1.30;;
2940;SDS011;1480;51.456;6.670;2023-06-19T05:39:43;2.30;;;1.33;;
2940;SDS011;1480;51.456;6.670;2023-06-19T05:42:10;2.80;;;1.50;;
2940;SDS011;1480;51.456;6.670;2023-06-19T05:44:36;2.17;;;1.20;;
2940;SDS011;1480;51.456;6.670;2023-06-19T05:47:03;3.00;;;1.60;;
2940;SDS011;1480;51.456;6.670;2023-06-19T05:49:30;1.93;;;1.13;;
2940;SDS011;1480;51.456;6.670;2023-06-19T05:51:57;2.40;;;1.13;;
2940;SDS011;1480;51.456;6.670;2023-06-19T05:54:24;2.67;;;1.50;;
2940;SDS011;1480;51.456;6.670;2023-06-19T05:56:52;2.83;;;1.50;;
2940;SDS011;1480;51.456;6.670;2023-06-19T05:59:19;2.53;;;1.50;;
2940;SDS011;1480;51.456;6.670;2023-06-19T06:01:46;2.37;;;1.40;;
2940;SDS011;1480;51.456;6.670;2023-06-19T06:04:15;2.80;;;1.63;;
2940;SDS011;1480;51.456;6.670;2023-06-19T06:06:42;2.07;;;1.60;;
2940;SDS011;1480;51.456;6.670;2023-06-19T06:09:08;3.27;;;1.80;;
2940;SDS011;1480;51.456;6.670;2023-06-19T06:11:37;1.67;;;1.30;;
2940;SDS011;1480;51.456;6.670;2023-06-19T06:14:05;2.47;;;1.23;;
2940;SDS011;1480;51.456;6.670;2023-06-19T06:16:31;2.63;;;1.43;;
2940;SDS011;1480;51.456;6.670;2023-06-19T06:18:58;2.63;;;1.30;;
2940;SDS011;1480;51.456;6.670;2023-06-19T06:21:25;2.80;;;1.10;;
2940;SDS011;1480;51.456;6.670;2023-06-19T06:23:51;1.93;;;1.40;;
2940;SDS011;1480;51.456;6.670;2023-06-19T06:26:19;2.50;;;1.60;;
2940;SDS011;1480;51.456;6.670;2023-06-19T06:28:48;2.13;;;1.27;;
2940;SDS011;1480;51.456;6.670;2023-06-19T06:31:16;2.07;;;1.27;;
2940;SDS011;1480;51.456;6.670;2023-06-19T06:33:43;3.50;;;1.40;;
2940;SDS011;1480;51.456;6.670;2023-06-19T06:36:10;2.23;;;1.17;;
2940;SDS011;1480;51.456;6.670;2023-06-19T06:38:36;2.43;;;1.23;;
2940;SDS011;1480;51.456;6.670;2023-06-19T06:41:03;1.73;;;1.00;;
2940;SDS011;1480;51.456;6.670;2023-06-19T06:43:29;2.47;;;1.00;;
2940;SDS011;1480;51.456;6.670;2023-06-19T06:45:56;3.00;;;1.30;;
2940;SDS011;1480;51.456;6.670;2023-06-19T06:48:24;3.33;;;1.57;;
2940;SDS011;1480;51.456;6.670;2023-06-19T06:50:51;1.80;;;1.20;;
2940;SDS011;1480;51.456;6.670;2023-06-19T06:53:24;2.07;;;1.23;;
2940;SDS011;1480;51.456;6.670;2023-06-19T06:55:50;1.90;;;1.20;;
2940;SDS011;1480;51.456;6.670;2023-06-19T06:58:17;2.00;;;1.20;;
2940;SDS011;1480;51.456;6.670;2023-06-19T07:00:44;2.03;;;1.00;;
2940;SDS011;1480;51.456;6.670;2023-06-19T07:03:10;3.63;;;1.30;;
2940;SDS011;1480;51.456;6.670;2023-06-19T07:05:39;2.07;;;1.30;;
2940;SDS011;1480;51.456;6.670;2023-06-19T07:08:06;2.50;;;1.10;;
2940;SDS011;1480;51.456;6.670;2023-06-19T07:10:32;1.77;;;1.07;;
2940;SDS011;1480;51.456;6.670;2023-06-19T07:12:59;2.23;;;1.13;;
2940;SDS011;1480;51.456;6.670;2023-06-19T07:15:26;1.80;;;1.07;;
2940;SDS011;1480;51.456;6.670;2023-06-19T07:17:53;2.53;;;1.13;;
2940;SDS011;1480;51.456;6.670;2023-06-19T07:20:19;2.10;;;1.30;;
2940;SDS011;1480;51.456;6.670;2023-06-19T07:22:49;3.20;;;1.13;;
2940;SDS011;1480;51.456;6.670;2023-06-19T07:25:16;2.13;;;1.23;;
2940;SDS011;1480;51.456;6.670;2023-06-19T07:27:43;2.07;;;1.37;;
2940;SDS011;1480;51.456;6.670;2023-06-19T07:30:10;3.20;;;1.60;;
2940;SDS011;1480;51.456;6.670;2023-06-19T07:32:37;2.30;;;1.00;;
2940;SDS011;1480;51.456;6.670;2023-06-19T07:35:05;2.10;;;1.43;;
2940;SDS011;1480;51.456;6.670;2023-06-19T07:37:32;3.13;;;1.23;;
2940;SDS011;1480;51.456;6.670;2023-06-19T07:40:00;4.33;;;1.30;;
2940;SDS011;1480;51.456;6.670;2023-06-19T07:42:27;2.47;;;1.43;;
2940;SDS011;1480;51.456;6.670;2023-06-19T07:44:53;2.17;;;1.20;;
2940;SDS011;1480;51.456;6.670;2023-06-19T07:47:20;2.80;;;1.40;;
2940;SDS011;1480;51.456;6.670;2023-06-19T07:49:47;2.53;;;1.37;;
2940;SDS011;1480;51.456;6.670;2023-06-19T07:52:13;1.80;;;1.10;;
2940;SDS011;1480;51.456;6.670;2023-06-19T07:54:50;1.60;;;1.00;;
2940;SDS011;1480;51.456;6.670;2023-06-19T07:57:19;2.13;;;1.20;;
2940;SDS011;1480;51.456;6.670;2023-06-19T07:59:46;2.00;;;1.30;;
2940;SDS011;1480;51.456;6.670;2023-06-19T08:02:13;1.60;;;1.00;;
2940;SDS011;1480;51.456;6.670;2023-06-19T08:04:40;3.70;;;1.37;;
2940;SDS011;1480;51.456;6.670;2023-06-19T08:07:06;2.07;;;1.20;;
2940;SDS011;1480;51.456;6.670;2023-06-19T08:09:33;4.03;;;1.60;;
2940;SDS011;1480;51.456;6.670;2023-06-19T08:12:00;1.90;;;1.07;;
2940;SDS011;1480;51.456;6.670;2023-06-19T08:14:28;2.00;;;1.77;;
2940;SDS011;1480;51.456;6.670;2023-06-19T08:16:55;2.10;;;1.10;;
2940;SDS011;1480;51.456;6.670;2023-06-19T08:19:21;2.27;;;1.23;;
2940;SDS011;1480;51.456;6.670;2023-06-19T08:21:48;1.90;;;1.10;;
2940;SDS011;1480;51.456;6.670;2023-06-19T08:24:15;2.03;;;1.20;;
2940;SDS011;1480;51.456;6.670;2023-06-19T08:26:42;2.43;;;1.27;;
2940;SDS011;1480;51.456;6.670;2023-06-19T08:29:08;2.70;;;1.20;;
2940;SDS011;1480;51.456;6.670;2023-06-19T08:31:36;2.63;;;1.20;;
2940;SDS011;1480;51.456;6.670;2023-06-19T08:34:03;2.43;;;1.30;;
2940;SDS011;1480;51.456;6.670;2023-06-19T08:36:33;2.17;;;1.40;;
2940;SDS011;1480;51.456;6.670;2023-06-19T08:39:00;2.20;;;1.47;;
2940;SDS011;1480;51.456;6.670;2023-06-19T08:41:26;1.60;;;1.00;;
2940;SDS011;1480;51.456;6.670;2023-06-19T08:43:53;1.97;;;1.17;;
2940;SDS011;1480;51.456;6.670;2023-06-19T08:46:20;2.87;;;1.20;;
2940;SDS011;1480;51.456;6.670;2023-06-19T08:48:54;1.97;;;1.20;;
2940;SDS011;1480;51.456;6.670;2023-06-19T08:51:21;2.60;;;1.47;;
2940;SDS011;1480;51.456;6.670;2023-06-19T08:53:48;2.30;;;1.17;;
2940;SDS011;1480;51.456;6.670;2023-06-19T08:56:17;1.77;;;1.07;;
2940;SDS011;1480;51.456;6.670;2023-06-19T08:58:43;2.10;;;1.10;;
2940;SDS011;1480;51.456;6.670;2023-06-19T09:01:10;2.10;;;1.20;;
2940;SDS011;1480;51.456;6.670;2023-06-19T09:03:38;2.90;;;1.13;;
2940;SDS011;1480;51.456;6.670;2023-06-19T09:06:07;4.73;;;1.60;;
2940;SDS011;1480;51.456;6.670;2023-06-19T09:08:35;1.67;;;1.20;;
2940;SDS011;1480;51.456;6.670;2023-06-19T09:11:03;2.50;;;1.33;;
2940;SDS011;1480;51.456;6.670;2023-06-19T09:13:33;2.30;;;1.20;;
2940;SDS011;1480;51.456;6.670;2023-06-19T09:16:01;2.03;;;1.33;;
2940;SDS011;1480;51.456;6.670;2023-06-19T09:18:28;1.87;;;0.93;;
2940;SDS011;1480;51.456;6.670;2023-06-19T09:20:55;1.77;;;1.03;;
2940;SDS011;1480;51.456;6.670;2023-06-19T09:23:23;2.00;;;1.20;;
2940;SDS011;1480;51.456;6.670;2023-06-19T09:25:53;2.93;;;1.40;;
2940;SDS011;1480;51.456;6.670;2023-06-19T09:28:21;2.40;;;1.40;;
2940;SDS011;1480;51.456;6.670;2023-06-19T09:30:55;2.97;;;1.77;;
2940;SDS011;1480;51.456;6.670;2023-06-19T09:33:23;1.87;;;0.97;;
2940;SDS011;1480;51.456;6.670;2023-06-19T09:35:50;2.20;;;1.03;;
2940;SDS011;1480;51.456;6.670;2023-06-19T09:38:17;2.63;;;1.50;;
2940;SDS011;1480;51.456;6.670;2023-06-19T09:40:47;2.30;;;1.30;;
2940;SDS011;1480;51.456;6.670;2023-06-19T09:43:15;2.47;;;1.57;;
2940;SDS011;1480;51.456;6.670;2023-06-19T09:45:46;2.20;;;1.47;;
2940;SDS011;1480;51.456;6.670;2023-06-19T09:48:15;1.70;;;1.07;;
2940;SDS011;1480;51.456;6.670;2023-06-19T09:50:52;2.20;;;1.30;;
2940;SDS011;1480;51.456;6.670;2023-06-19T09:53:21;2.13;;;1.50;;
2940;SDS011;1480;51.456;6.670;2023-06-19T09:55:50;3.33;;;1.60;;
2940;SDS011;1480;51.456;6.670;2023-06-19T09:58:17;2.50;;;1.53;;
2940;SDS011;1480;51.456;6.670;2023-06-19T10:00:44;2.53;;;1.20;;
2940;SDS011;1480;51.456;6.670;2023-06-19T10:03:12;3.73;;;2.27;;
2940;SDS011;1480;51.456;6.670;2023-06-19T10:05:39;2.77;;;1.70;;
2940;SDS011;1480;51.456;6.670;2023-06-19T10:08:06;5.60;;;1.80;;
2940;SDS011;1480;51.456;6.670;2023-06-19T10:10:33;2.20;;;1.67;;
2940;SDS011;1480;51.456;6.670;2023-06-19T10:13:11;3.00;;;1.90;;
2940;SDS011;1480;51.456;6.670;2023-06-19T10:15:40;3.10;;;1.70;;
2940;SDS011;1480;51.456;6.670;2023-06-19T10:18:07;2.87;;;1.50;;
2940;SDS011;1480;51.456;6.670;2023-06-19T10:20:34;3.03;;;1.93;;
2940;SDS011;1480;51.456;6.670;2023-06-19T10:23:04;2.80;;;1.47;;
2940;SDS011;1480;51.456;6.670;2023-06-19T10:25:33;2.53;;;1.33;;
2940;SDS011;1480;51.456;6.670;2023-06-19T10:28:02;3.30;;;1.93;;
2940;SDS011;1480;51.456;6.670;2023-06-19T10:30:31;3.17;;;1.80;;
2940;SDS011;1480;51.456;6.670;2023-06-19T10:32:59;2.80;;;1.63;;
2940;SDS011;1480;51.456;6.670;2023-06-19T10:35:29;4.27;;;2.10;;
2940;SDS011;1480;51.456;6.670;2023-06-19T10:37:55;3.13;;;1.90;;
2940;SDS011;1480;51.456;6.670;2023-06-19T10:40:22;3.03;;;2.10;;
2940;SDS011;1480;51.456;6.670;2023-06-19T10:42:49;3.10;;;1.70;;
2940;SDS011;1480;51.456;6.670;2023-06-19T10:45:17;3.20;;;2.13;;
2940;SDS011;1480;51.456;6.670;2023-06-19T10:47:44;2.97;;;1.97;;
2940;SDS011;1480;51.456;6.670;2023-06-19T10:50:11;2.70;;;2.03;;
2940;SDS011;1480;51.456;6.670;2023-06-19T10:52:42;3.10;;;1.17;;
2940;SDS011;1480;51.456;6.670;2023-06-19T10:55:10;5.43;;;2.17;;
2940;SDS011;1480;51.456;6.670;2023-06-19T10:57:37;2.80;;;1.50;;
2940;SDS011;1480;51.456;6.670;2023-06-19T11:00:05;4.27;;;2.33;;
2940;SDS011;1480;51.456;6.670;2023-06-19T11:02:39;2.90;;;1.60;;
2940;SDS011;1480;51.456;6.670;2023-06-19T11:05:08;2.77;;;1.70;;
2940;SDS011;1480;51.456;6.670;2023-06-19T11:07:35;3.50;;;2.37;;
2940;SDS011;1480;51.456;6.670;2023-06-19T11:10:03;3.03;;;1.97;;
2940;SDS011;1480;51.456;6.670;2023-06-19T11:12:30;2.53;;;1.73;;
2940;SDS011;1480;51.456;6.670;2023-06-19T11:14:58;2.90;;;2.10;;
2940;SDS011;1480;51.456;6.670;2023-06-19T11:17:25;3.10;;;2.03;;
2940;SDS011;1480;51.456;6.670;2023-06-19T11:19:53;2.73;;;1.80;;
2940;SDS011;1480;51.456;6.670;2023-06-19T11:22:33;3.97;;;2.33;;
2940;SDS011;1480;51.456;6.670;2023-06-19T11:25:02;3.10;;;2.13;;
2940;SDS011;1480;51.456;6.670;2023-06-19T11:27:30;2.90;;;2.10;;
2940;SDS011;1480;51.456;6.670;2023-06-19T11:29:59;3.10;;;2.17;;
2940;SDS011;1480;51.456;6.670;2023-06-19T11:32:30;3.50;;;2.00;;
2940;SDS011;1480;51.456;6.670;2023-06-19T11:35:03;7.00;;;2.30;;
2940;SDS011;1480;51.456;6.670;2023-06-19T11:37:32;2.33;;;1.50;;
2940;SDS011;1480;51.456;6.670;2023-06-19T11:40:00;3.80;;;2.13;;
2940;SDS011;1480;51.456;6.670;2023-06-19T11:42:30;4.40;;;2.20;;
2940;SDS011;1480;51.456;6.670;2023-06-19T11:44:59;2.00;;;1.50;;
2940;SDS011;1480;51.456;6.670;2023-06-19T11:47:29;3.70;;;1.90;;
2940;SDS011;1480;51.456;6.670;2023-06-19T11:49:56;2.80;;;1.87;;
2940;SDS011;1480;51.456;6.670;2023-06-19T11:52:24;2.40;;;1.50;;
2940;SDS011;1480;51.456;6.670;2023-06-19T11:54:51;2.93;;;1.70;;
2940;SDS011;1480;51.456;6.670;2023-06-19T11:57:18;10.03;;;2.43;;
2940;SDS011;1480;51.456;6.670;2023-06-19T11:59:45;3.77;;;2.33;;
2940;SDS011;1480;51.456;6.670;2023-06-19T12:02:12;3.87;;;1.83;;
2940;SDS011;1480;51.456;6.670;2023-06-19T12:04:38;3.17;;;2.30;;
2940;SDS011;1480;51.456;6.670;2023-06-19T12:07:05;3.97;;;2.20;;
2940;SDS011;1480;51.456;6.670;2023-06-19T12:09:34;3.40;;;2.60;;
2940;SDS011;1480;51.456;6.670;2023-06-19T12:12:01;4.00;;;2.40;;
2940;SDS011;1480;51.456;6.670;2023-06-19T12:14:27;2.60;;;1.60;;
2940;SDS011;1480;51.456;6.670;2023-06-19T12:16:54;3.53;;;2.20;;
2940;SDS011;1480;51.456;6.670;2023-06-19T12:19:21;4.20;;;2.50;;
2940;SDS011;1480;51.456;6.670;2023-06-19T12:21:47;3.50;;;1.87;;
2940;SDS011;1480;51.456;6.670;2023-06-19T12:24:14;3.00;;;2.00;;
2940;SDS011;1480;51.456;6.670;2023-06-19T12:26:42;4.53;;;2.10;;
2940;SDS011;1480;51.456;6.670;2023-06-19T12:29:09;2.60;;;1.87;;
2940;SDS011;1480;51.456;6.670;2023-06-19T12:31:36;2.17;;;1.43;;
2940;SDS011;1480;51.456;6.670;2023-06-19T12:34:02;4.43;;;2.20;;
2940;SDS011;1480;51.456;6.670;2023-06-19T12:36:30;3.23;;;1.90;;
2940;SDS011;1480;51.456;6.670;2023-06-19T12:38:58;2.90;;;1.67;;
2940;SDS011;1480;51.456;6.670;2023-06-19T12:41:25;3.80;;;2.03;;
2940;SDS011;1480;51.456;6.670;2023-06-19T12:43:53;3.30;;;2.20;;
2940;SDS011;1480;51.456;6.670;2023-06-19T12:46:19;3.67;;;2.00;;
2940;SDS011;1480;51.456;6.670;2023-06-19T12:48:46;3.33;;;2.07;;
2940;SDS011;1480;51.456;6.670;2023-06-19T12:51:15;2.80;;;1.93;;
2940;SDS011;1480;51.456;6.670;2023-06-19T12:53:43;2.77;;;1.67;;
2940;SDS011;1480;51.456;6.670;2023-06-19T12:56:09;3.30;;;2.00;;
2940;SDS011;1480;51.456;6.670;2023-06-19T12:58:36;2.80;;;2.13;;
2940;SDS011;1480;51.456;6.670;2023-06-19T13:01:04;3.37;;;2.37;;
2940;SDS011;1480;51.456;6.670;2023-06-19T13:03:31;2.90;;;1.50;;
2940;SDS011;1480;51.456;6.670;2023-06-19T13:05:57;2.63;;;1.77;;
2940;SDS011;1480;51.456;6.670;2023-06-19T13:08:24;3.60;;;2.37;;
2940;SDS011;1480;51.456;6.670;2023-06-19T13:10:51;3.13;;;1.73;;
2940;SDS011;1480;51.456;6.670;2023-06-19T13:13:17;4.60;;;2.13;;
2940;SDS011;1480;51.456;6.670;2023-06-19T13:15:44;2.83;;;1.87;;
2940;SDS011;1480;51.456;6.670;2023-06-19T13:18:12;4.10;;;2.33;;
2940;SDS011;1480;51.456;6.670;2023-06-19T13:20:38;3.97;;;2.20;;
2940;SDS011;1480;51.456;6.670;2023-06-19T13:23:05;4.00;;;2.27;;
2940;SDS011;1480;51.456;6.670;2023-06-19T13:25:32;4.33;;;2.20;;
2940;SDS011;1480;51.456;6.670;2023-06-19T13:27:58;3.37;;;2.00;;
2940;SDS011;1480;51.456;6.670;2023-06-19T13:30:25;3.93;;;2.30;;
2940;SDS011;1480;51.456;6.670;2023-06-19T13:32:52;2.70;;;1.63;;
2940;SDS011;1480;51.456;6.670;2023-06-19T13:35:20;2.30;;;1.53;;
2940;SDS011;1480;51.456;6.670;2023-06-19T13:37:47;2.20;;;1.27;;
2940;SDS011;1480;51.456;6.670;2023-06-19T13:40:14;3.27;;;1.70;;
2940;SDS011;1480;51.456;6.670;2023-06-19T13:42:40;4.03;;;1.83;;
2940;SDS011;1480;51.456;6.670;2023-06-19T13:45:07;3.20;;;1.90;;
2940;SDS011;1480;51.456;6.670;2023-06-19T13:47:35;4.53;;;2.07;;
2940;SDS011;1480;51.456;6.670;2023-06-19T13:50:02;2.60;;;1.80;;
2940;SDS011;1480;51.456;6.670;2023-06-19T13:52:30;3.23;;;1.83;;
2940;SDS011;1480;51.456;6.670;2023-06-19T13:54:57;2.60;;;1.60;;
2940;SDS011;1480;51.456;6.670;2023-06-19T13:57:24;3.60;;;2.60;;
2940;SDS011;1480;51.456;6.670;2023-06-19T13:59:50;3.90;;;2.10;;
2940;SDS011;1480;51.456;6.670;2023-06-19T14:02:17;2.67;;;1.40;;
2940;SDS011;1480;51.456;6.670;2023-06-19T14:04:43;2.43;;;1.57;;
2940;SDS011;1480;51.456;6.670;2023-06-19T14:07:10;5.90;;;2.07;;
2940;SDS011;1480;51.456;6.670;2023-06-19T14:09:38;3.13;;;1.60;;
2940;SDS011;1480;51.456;6.670;2023-06-19T14:12:06;4.20;;;1.83;;
2940;SDS011;1480;51.456;6.670;2023-06-19T14:14:34;3.37;;;2.13;;
2940;SDS011;1480;51.456;6.670;2023-06-19T14:17:01;2.90;;;1.73;;
2940;SDS011;1480;51.456;6.670;2023-06-19T14:19:28;2.87;;;2.00;;
2940;SDS011;1480;51.456;6.670;2023-06-19T14:21:55;2.00;;;1.40;;
2940;SDS011;1480;51.456;6.670;2023-06-19T14:24:21;2.70;;;1.73;;
2940;SDS011;1480;51.456;6.670;2023-06-19T14:26:50;2.80;;;1.80;;
2940;SDS011;1480;51.456;6.670;2023-06-19T14:29:17;5.00;;;1.73;;
2940;SDS011;1480;51.456;6.670;2023-06-19T14:31:45;2.27;;;1.60;;
2940;SDS011;1480;51.456;6.670;2023-06-19T14:34:12;3.00;;;1.87;;
2940;SDS011;1480;51.456;6.670;2023-06-19T14:36:39;5.60;;;1.63;;
2940;SDS011;1480;51.456;6.670;2023-06-19T14:39:05;4.20;;;1.90;;
2940;SDS011;1480;51.456;6.670;2023-06-19T14:41:32;3.63;;;2.10;;
2940;SDS011;1480;51.456;6.670;2023-06-19T14:44:00;2.80;;;1.80;;
2940;SDS011;1480;51.456;6.670;2023-06-19T14:46:27;2.70;;;1.60;;
2940;SDS011;1480;51.456;6.670;2023-06-19T14:48:53;3.87;;;2.20;;
2940;SDS011;1480;51.456;6.670;2023-06-19T14:51:20;3.20;;;1.97;;
2940;SDS011;1480;51.456;6.670;2023-06-19T14:53:47;3.60;;;2.00;;
2940;SDS011;1480;51.456;6.670;2023-06-19T14:56:13;1.90;;;1.20;;
2940;SDS011;1480;51.456;6.670;2023-06-19T14:58:40;4.27;;;2.30;;
2940;SDS011;1480;51.456;6.670;2023-06-19T15:01:09;6.50;;;2.00;;
2940;SDS011;1480;51.456;6.670;2023-06-19T15:03:36;2.73;;;2.17;;
2940;SDS011;1480;51.456;6.670;2023-06-19T15:06:02;2.50;;;1.53;;
2940;SDS011;1480;51.456;6.670;2023-06-19T15:08:29;2.60;;;1.43;;
2940;SDS011;1480;51.456;6.670;2023-06-19T15:10:56;2.70;;;1.70;;
2940;SDS011;1480;51.456;6.670;2023-06-19T15:13:23;2.67;;;1.70;;
2940;SDS011;1480;51.456;6.670;2023-06-19T15:15:50;3.03;;;1.90;;